sensor_id;sensor_type;location;lat;lon;timestamp;P1;durP1;ratioP1;P2;durP2;ratioP2
16612;SDS011;8419;52.358;9.752;2023-03-01T00:00:11;10.30;;;5.17;;
16612;SDS011;8419;52.358;9.752;2023-03-01T00:02:58;9.87;;;5.40;;
16612;SDS011;8419;52.358;9.752;2023-03-01T00:05:46;7.57;;;4.80;;
16612;SDS011;8419;52.358;9.752;2023-03-01T00:08:32;8.43;;;5.00;;
16612;SDS011;8419;52.358;9.752;2023-03-01T00:11:19;9.07;;;4.90;;
16612;SDS011;8419;52.358;9.752;2023-03-01T00:14:06;7.50;;;4.60;;
16612;SDS011;8419;52.358;9.752;2023-03-01T00:16:51;7.33;;;4.57;;
16612;SDS011;8419;52.358;9.752;2023-03-01T00:19:38;9.67;;;5.10;;
16612;SDS011;8419;52.358;9.752;2023-03-01T00:22:23;7.50;;;5.07;;
16612;SDS011;8419;52.358;9.752;2023-03-01T00:25:11;9.53;;;5.30;;
16612;SDS011;8419;52.358;9.752;2023-03-01T00:27:56;7.07;;;4.60;;
16612;SDS011;8419;52.358;9.752;2023-03-01T00:30:41;7.50;;;4.97;;
16612;SDS011;8419;52.358;9.752;2023-03-01T00:33:26;6.13;;;4.77;;
16612;SDS011;8419;52.358;9.752;2023-03-01T00:36:12;7.37;;;4.70;;
16612;SDS011;8419;52.358;9.752;2023-03-01T00:38:58;8.20;;;5.10;;
16612;SDS011;8419;52.358;9.752;2023-03-01T00:41:44;9.27;;;5.40;;
16612;SDS011;8419;52.358;9.752;2023-03-01T00:44:29;10.40;;;5.33;;
16612;SDS011;8419;52.358;9.752;2023-03-01T00:47:14;8.47;;;5.40;;
16612;SDS011;8419;52.358;9.752;2023-03-01T00:50:00;8.67;;;4.80;;
16612;SDS011;8419;52.358;9.752;2023-03-01T00:52:45;7.57;;;5.23;;
16612;SDS011;8419;52.358;9.752;2023-03-01T00:55:31;9.80;;;5.60;;
16612;SDS011;8419;52.358;9.752;2023-03-01T00:58:16;10.50;;;4.70;;
16612;SDS011;8419;52.358;9.752;2023-03-01T01:01:07;7.20;;;5.17;;
16612;SDS011;8419;52.358;9.752;2023-03-01T01:04:02;7.90;;;4.97;;
16612;SDS011;8419;52.358;9.752;2023-03-01T01:06:49;7.87;;;5.47;;
16612;SDS011;8419;52.358;9.752;2023-03-01T01:09:34;8.53;;;5.30;;
16612;SDS011;8419;52.358;9.752;2023-03-01T01:12:20;8.70;;;5.43;;
16612;SDS011;8419;52.358;9.752;2023-03-01T01:15:07;7.60;;;5.67;;
16612;SDS011;8419;52.358;9.752;2023-03-01T01:17:56;9.13;;;5.57;;
16612;SDS011;8419;52.358;9.752;2023-03-01T01:20:41;6.87;;;5.00;;
16612;SDS011;8419;52.358;9.752;2023-03-01T01:23:27;8.97;;;4.87;;
16612;SDS011;8419;52.358;9.752;2023-03-01T01:26:14;6.50;;;4.70;;
16612;SDS011;8419;52.358;9.752;2023-03-01T01:29:01;8.63;;;5.10;;
16612;SDS011;8419;52.358;9.752;2023-03-01T01:31:47;6.23;;;5.20;;
16612;SDS011;8419;52.358;9.752;2023-03-01T01:34:33;8.53;;;5.17;;
16612;SDS011;8419;52.358;9.752;2023-03-01T01:37:18;8.90;;;5.20;;
16612;SDS011;8419;52.358;9.752;2023-03-01T01:40:04;10.00;;;5.73;;
16612;SDS011;8419;52.358;9.752;2023-03-01T01:42:51;7.97;;;5.13;;
16612;SDS011;8419;52.358;9.752;2023-03-01T01:45:38;8.13;;;5.13;;
16612;SDS011;8419;52.358;9.752;2023-03-01T01:48:27;7.70;;;5.47;;
16612;SDS011;8419;52.358;9.752;2023-03-01T01:51:26;6.97;;;4.63;;
16612;SDS011;8419;52.358;9.752;2023-03-01T01:54:22;8.63;;;5.00;;
16612;SDS011;8419;52.358;9.752;2023-03-01T01:57:13;9.73;;;4.90;;
16612;SDS011;8419;52.358;9.752;2023-03-01T02:00:04;10.07;;;5.17;;
16612;SDS011;8419;52.358;9.752;2023-03-01T02:02:54;8.30;;;5.27;;
16612;SDS011;8419;52.358;9.752;2023-03-01T02:05:43;7.57;;;5.20;;
16612;SDS011;8419;52.358;9.752;2023-03-01T02:08:34;7.67;;;5.10;;
16612;SDS011;8419;52.358;9.752;2023-03-01T02:11:22;7.03;;;4.50;;
16612;SDS011;8419;52.358;9.752;2023-03-01T02:14:07;8.73;;;5.53;;
16612;SDS011;8419;52.358;9.752;2023-03-01T02:16:52;9.03;;;4.83;;
16612;SDS011;8419;52.358;9.752;2023-03-01T02:19:41;6.27;;;4.30;;
16612;SDS011;8419;52.358;9.752;2023-03-01T02:22:36;7.40;;;4.90;;
16612;SDS011;8419;52.358;9.752;2023-03-01T02:25:27;7.40;;;4.60;;
16612;SDS011;8419;52.358;9.752;2023-03-01T02:28:29;7.00;;;4.47;;
16612;SDS011;8419;52.358;9.752;2023-03-01T02:31:16;9.70;;;5.00;;
16612;SDS011;8419;52.358;9.752;2023-03-01T02:34:22;7.07;;;4.53;;
16612;SDS011;8419;52.358;9.752;2023-03-01T02:37:10;7.80;;;5.17;;
16612;SDS011;8419;52.358;9.752;2023-03-01T02:39:59;7.10;;;4.87;;
16612;SDS011;8419;52.358;9.752;2023-03-01T02:42:51;10.30;;;5.50;;
16612;SDS011;8419;52.358;9.752;2023-03-01T02:45:42;7.37;;;4.97;;
16612;SDS011;8419;52.358;9.752;2023-03-01T02:48:39;7.47;;;4.73;;
16612;SDS011;8419;52.358;9.752;2023-03-01T02:51:44;9.17;;;4.73;;
16612;SDS011;8419;52.358;9.752;2023-03-01T02:54:38;6.77;;;4.33;;
16612;SDS011;8419;52.358;9.752;2023-03-01T02:57:29;5.97;;;4.57;;
16612;SDS011;8419;52.358;9.752;2023-03-01T03:00:18;9.73;;;5.07;;
16612;SDS011;8419;52.358;9.752;2023-03-01T03:03:05;8.13;;;5.00;;
16612;SDS011;8419;52.358;9.752;2023-03-01T03:05:51;5.83;;;3.90;;
16612;SDS011;8419;52.358;9.752;2023-03-01T03:08:37;8.03;;;4.83;;
16612;SDS011;8419;52.358;9.752;2023-03-01T03:11:22;8.73;;;4.93;;
16612;SDS011;8419;52.358;9.752;2023-03-01T03:14:08;8.83;;;5.43;;
16612;SDS011;8419;52.358;9.752;2023-03-01T03:16:56;6.87;;;4.70;;
16612;SDS011;8419;52.358;9.752;2023-03-01T03:19:41;6.83;;;4.57;;
16612;SDS011;8419;52.358;9.752;2023-03-01T03:22:29;7.00;;;4.77;;
16612;SDS011;8419;52.358;9.752;2023-03-01T03:25:15;9.40;;;4.93;;
16612;SDS011;8419;52.358;9.752;2023-03-01T03:28:00;8.43;;;5.07;;
16612;SDS011;8419;52.358;9.752;2023-03-01T03:30:53;8.87;;;4.53;;
16612;SDS011;8419;52.358;9.752;2023-03-01T03:33:38;11.63;;;5.80;;
16612;SDS011;8419;52.358;9.752;2023-03-01T03:36:24;10.10;;;5.83;;
16612;SDS011;8419;52.358;9.752;2023-03-01T03:39:11;7.67;;;5.03;;
16612;SDS011;8419;52.358;9.752;2023-03-01T03:41:56;10.43;;;4.87;;
16612;SDS011;8419;52.358;9.752;2023-03-01T03:44:41;8.17;;;4.87;;
16612;SDS011;8419;52.358;9.752;2023-03-01T03:47:27;9.83;;;5.13;;
16612;SDS011;8419;52.358;9.752;2023-03-01T03:50:13;7.43;;;5.13;;
16612;SDS011;8419;52.358;9.752;2023-03-01T03:53:00;9.13;;;5.47;;
16612;SDS011;8419;52.358;9.752;2023-03-01T03:55:47;7.87;;;4.70;;
16612;SDS011;8419;52.358;9.752;2023-03-01T03:58:33;9.07;;;5.10;;
16612;SDS011;8419;52.358;9.752;2023-03-01T04:01:18;11.10;;;6.60;;
16612;SDS011;8419;52.358;9.752;2023-03-01T04:04:04;13.97;;;5.43;;
16612;SDS011;8419;52.358;9.752;2023-03-01T04:06:51;8.23;;;5.87;;
16612;SDS011;8419;52.358;9.752;2023-03-01T04:09:37;11.17;;;5.47;;
16612;SDS011;8419;52.358;9.752;2023-03-01T04:12:22;10.70;;;5.93;;
16612;SDS011;8419;52.358;9.752;2023-03-01T04:15:08;8.33;;;5.60;;
16612;SDS011;8419;52.358;9.752;2023-03-01T04:17:57;8.73;;;5.20;;
16612;SDS011;8419;52.358;9.752;2023-03-01T04:20:43;11.47;;;5.70;;
16612;SDS011;8419;52.358;9.752;2023-03-01T04:23:29;8.67;;;5.60;;
16612;SDS011;8419;52.358;9.752;2023-03-01T04:26:14;7.50;;;5.43;;
16612;SDS011;8419;52.358;9.752;2023-03-01T04:29:00;13.03;;;5.43;;
16612;SDS011;8419;52.358;9.752;2023-03-01T04:31:45;8.07;;;5.67;;
16612;SDS011;8419;52.358;9.752;2023-03-01T04:34:33;9.00;;;5.20;;
16612;SDS011;8419;52.358;9.752;2023-03-01T04:37:18;8.93;;;5.87;;
16612;SDS011;8419;52.358;9.752;2023-03-01T04:40:05;11.37;;;6.27;;
16612;SDS011;8419;52.358;9.752;2023-03-01T04:43:00;8.90;;;5.80;;
16612;SDS011;8419;52.358;9.752;2023-03-01T04:45:46;7.90;;;5.87;;
16612;SDS011;8419;52.358;9.752;2023-03-01T04:48:32;15.57;;;7.77;;
16612;SDS011;8419;52.358;9.752;2023-03-01T04:51:17;10.77;;;5.97;;
16612;SDS011;8419;52.358;9.752;2023-03-01T04:54:05;12.03;;;6.50;;
16612;SDS011;8419;52.358;9.752;2023-03-01T04:56:53;11.30;;;6.77;;
16612;SDS011;8419;52.358;9.752;2023-03-01T04:59:38;9.60;;;5.83;;
16612;SDS011;8419;52.358;9.752;2023-03-01T05:02:24;13.37;;;7.23;;
16612;SDS011;8419;52.358;9.752;2023-03-01T05:05:09;11.37;;;6.37;;
16612;SDS011;8419;52.358;9.752;2023-03-01T05:07:55;9.40;;;5.73;;
16612;SDS011;8419;52.358;9.752;2023-03-01T05:10:42;8.27;;;5.70;;
16612;SDS011;8419;52.358;9.752;2023-03-01T05:13:30;10.20;;;6.20;;
16612;SDS011;8419;52.358;9.752;2023-03-01T05:16:16;10.53;;;6.00;;
16612;SDS011;8419;52.358;9.752;2023-03-01T05:19:02;7.77;;;5.87;;
16612;SDS011;8419;52.358;9.752;2023-03-01T05:21:55;8.90;;;5.93;;
16612;SDS011;8419;52.358;9.752;2023-03-01T05:24:47;8.83;;;5.97;;
16612;SDS011;8419;52.358;9.752;2023-03-01T05:27:32;7.57;;;5.30;;
16612;SDS011;8419;52.358;9.752;2023-03-01T05:30:21;8.30;;;5.83;;
16612;SDS011;8419;52.358;9.752;2023-03-01T05:33:06;9.90;;;5.80;;
16612;SDS011;8419;52.358;9.752;2023-03-01T05:35:59;9.80;;;6.00;;
16612;SDS011;8419;52.358;9.752;2023-03-01T05:38:45;9.50;;;5.47;;
16612;SDS011;8419;52.358;9.752;2023-03-01T05:41:30;9.07;;;6.17;;
16612;SDS011;8419;52.358;9.752;2023-03-01T05:44:15;13.03;;;6.30;;
16612;SDS011;8419;52.358;9.752;2023-03-01T05:47:01;10.70;;;6.03;;
16612;SDS011;8419;52.358;9.752;2023-03-01T05:49:46;8.37;;;5.60;;
16612;SDS011;8419;52.358;9.752;2023-03-01T05:52:34;10.93;;;6.60;;
16612;SDS011;8419;52.358;9.752;2023-03-01T05:55:20;9.10;;;5.90;;
16612;SDS011;8419;52.358;9.752;2023-03-01T05:58:06;11.50;;;5.53;;
16612;SDS011;8419;52.358;9.752;2023-03-01T06:00:54;9.73;;;5.53;;
16612;SDS011;8419;52.358;9.752;2023-03-01T06:03:42;8.67;;;5.63;;
16612;SDS011;8419;52.358;9.752;2023-03-01T06:06:29;10.03;;;6.00;;
16612;SDS011;8419;52.358;9.752;2023-03-01T06:09:19;12.90;;;6.33;;
16612;SDS011;8419;52.358;9.752;2023-03-01T06:12:04;12.97;;;6.23;;
16612;SDS011;8419;52.358;9.752;2023-03-01T06:14:50;11.27;;;5.93;;
16612;SDS011;8419;52.358;9.752;2023-03-01T06:17:36;8.87;;;5.87;;
16612;SDS011;8419;52.358;9.752;2023-03-01T06:20:23;8.77;;;6.40;;
16612;SDS011;8419;52.358;9.752;2023-03-01T06:23:10;13.17;;;7.53;;
16612;SDS011;8419;52.358;9.752;2023-03-01T06:25:55;12.37;;;6.27;;
16612;SDS011;8419;52.358;9.752;2023-03-01T06:28:43;14.40;;;6.23;;
16612;SDS011;8419;52.358;9.752;2023-03-01T06:31:37;9.43;;;6.40;;
16612;SDS011;8419;52.358;9.752;2023-03-01T06:34:22;8.73;;;6.33;;
16612;SDS011;8419;52.358;9.752;2023-03-01T06:37:08;9.80;;;5.83;;
16612;SDS011;8419;52.358;9.752;2023-03-01T06:39:54;10.17;;;6.37;;
16612;SDS011;8419;52.358;9.752;2023-03-01T06:42:47;11.30;;;7.17;;
16612;SDS011;8419;52.358;9.752;2023-03-01T06:45:34;9.80;;;6.63;;
16612;SDS011;8419;52.358;9.752;2023-03-01T06:48:21;13.10;;;7.37;;
16612;SDS011;8419;52.358;9.752;2023-03-01T06:51:06;11.53;;;6.60;;
16612;SDS011;8419;52.358;9.752;2023-03-01T06:53:51;12.40;;;6.37;;
16612;SDS011;8419;52.358;9.752;2023-03-01T06:56:36;10.47;;;7.27;;
16612;SDS011;8419;52.358;9.752;2023-03-01T06:59:22;16.37;;;7.17;;
16612;SDS011;8419;52.358;9.752;2023-03-01T07:02:10;14.03;;;7.20;;
16612;SDS011;8419;52.358;9.752;2023-03-01T07:04:55;22.83;;;9.63;;
16612;SDS011;8419;52.358;9.752;2023-03-01T07:07:41;12.17;;;8.00;;
16612;SDS011;8419;52.358;9.752;2023-03-01T07:10:26;18.60;;;7.27;;
16612;SDS011;8419;52.358;9.752;2023-03-01T07:13:12;11.13;;;7.17;;
16612;SDS011;8419;52.358;9.752;2023-03-01T07:15:57;14.30;;;7.27;;
16612;SDS011;8419;52.358;9.752;2023-03-01T07:18:42;14.63;;;7.30;;
16612;SDS011;8419;52.358;9.752;2023-03-01T07:21:28;11.70;;;7.30;;
16612;SDS011;8419;52.358;9.752;2023-03-01T07:24:13;10.37;;;7.00;;
16612;SDS011;8419;52.358;9.752;2023-03-01T07:26:59;11.40;;;6.43;;
16612;SDS011;8419;52.358;9.752;2023-03-01T07:29:44;9.90;;;6.47;;
16612;SDS011;8419;52.358;9.752;2023-03-01T07:32:29;9.77;;;6.23;;
16612;SDS011;8419;52.358;9.752;2023-03-01T07:35:15;12.60;;;6.10;;
16612;SDS011;8419;52.358;9.752;2023-03-01T07:38:00;10.13;;;6.17;;
16612;SDS011;8419;52.358;9.752;2023-03-01T07:40:46;11.23;;;6.20;;
16612;SDS011;8419;52.358;9.752;2023-03-01T07:43:31;8.07;;;6.00;;
16612;SDS011;8419;52.358;9.752;2023-03-01T07:46:16;14.97;;;6.47;;
16612;SDS011;8419;52.358;9.752;2023-03-01T07:49:03;11.67;;;6.40;;
16612;SDS011;8419;52.358;9.752;2023-03-01T07:51:51;10.53;;;6.40;;
16612;SDS011;8419;52.358;9.752;2023-03-01T07:54:36;12.70;;;6.43;;
16612;SDS011;8419;52.358;9.752;2023-03-01T07:57:21;9.13;;;6.23;;
16612;SDS011;8419;52.358;9.752;2023-03-01T08:00:09;8.53;;;5.97;;
16612;SDS011;8419;52.358;9.752;2023-03-01T08:02:58;15.37;;;6.97;;
16612;SDS011;8419;52.358;9.752;2023-03-01T08:05:45;10.07;;;6.03;;
16612;SDS011;8419;52.358;9.752;2023-03-01T08:08:30;12.80;;;6.03;;
16612;SDS011;8419;52.358;9.752;2023-03-01T08:11:16;10.97;;;6.97;;
16612;SDS011;8419;52.358;9.752;2023-03-01T08:14:01;8.93;;;5.43;;
16612;SDS011;8419;52.358;9.752;2023-03-01T08:16:48;9.93;;;6.27;;
16612;SDS011;8419;52.358;9.752;2023-03-01T08:19:34;9.37;;;6.13;;
16612;SDS011;8419;52.358;9.752;2023-03-01T08:22:19;10.23;;;5.80;;
16612;SDS011;8419;52.358;9.752;2023-03-01T08:25:08;8.93;;;5.83;;
16612;SDS011;8419;52.358;9.752;2023-03-01T08:27:54;7.07;;;5.27;;
16612;SDS011;8419;52.358;9.752;2023-03-01T08:30:38;10.67;;;6.00;;
16612;SDS011;8419;52.358;9.752;2023-03-01T08:33:24;7.13;;;5.03;;
16612;SDS011;8419;52.358;9.752;2023-03-01T08:36:09;11.63;;;5.60;;
16612;SDS011;8419;52.358;9.752;2023-03-01T08:38:54;6.83;;;4.73;;
16612;SDS011;8419;52.358;9.752;2023-03-01T08:41:40;7.87;;;4.83;;
16612;SDS011;8419;52.358;9.752;2023-03-01T08:44:28;9.80;;;5.30;;
16612;SDS011;8419;52.358;9.752;2023-03-01T08:47:14;10.27;;;6.00;;
16612;SDS011;8419;52.358;9.752;2023-03-01T08:50:01;12.80;;;5.60;;
16612;SDS011;8419;52.358;9.752;2023-03-01T08:52:47;13.33;;;6.10;;
16612;SDS011;8419;52.358;9.752;2023-03-01T08:55:32;8.17;;;4.27;;
16612;SDS011;8419;52.358;9.752;2023-03-01T08:58:18;7.13;;;4.53;;
16612;SDS011;8419;52.358;9.752;2023-03-01T09:01:06;10.67;;;4.57;;
16612;SDS011;8419;52.358;9.752;2023-03-01T09:03:53;11.70;;;5.17;;
16612;SDS011;8419;52.358;9.752;2023-03-01T09:06:38;9.03;;;4.33;;
16612;SDS011;8419;52.358;9.752;2023-03-01T09:09:23;7.87;;;3.90;;
16612;SDS011;8419;52.358;9.752;2023-03-01T09:12:09;6.63;;;4.13;;
16612;SDS011;8419;52.358;9.752;2023-03-01T09:14:54;13.37;;;4.40;;
16612;SDS011;8419;52.358;9.752;2023-03-01T09:17:39;7.70;;;3.67;;
16612;SDS011;8419;52.358;9.752;2023-03-01T09:20:25;7.67;;;4.07;;
16612;SDS011;8419;52.358;9.752;2023-03-01T09:23:10;5.03;;;3.43;;
16612;SDS011;8419;52.358;9.752;2023-03-01T09:25:55;6.90;;;4.43;;
16612;SDS011;8419;52.358;9.752;2023-03-01T09:28:40;12.10;;;4.03;;
16612;SDS011;8419;52.358;9.752;2023-03-01T09:31:26;7.20;;;3.60;;
16612;SDS011;8419;52.358;9.752;2023-03-01T09:34:11;6.23;;;3.70;;
16612;SDS011;8419;52.358;9.752;2023-03-01T09:36:59;7.60;;;3.43;;
16612;SDS011;8419;52.358;9.752;2023-03-01T09:39:46;5.20;;;3.53;;
16612;SDS011;8419;52.358;9.752;2023-03-01T09:42:32;7.20;;;3.17;;
16612;SDS011;8419;52.358;9.752;2023-03-01T09:45:21;13.53;;;3.73;;
16612;SDS011;8419;52.358;9.752;2023-03-01T09:48:16;6.27;;;3.53;;
16612;SDS011;8419;52.358;9.752;2023-03-01T09:51:03;9.47;;;3.23;;
16612;SDS011;8419;52.358;9.752;2023-03-01T09:53:56;6.40;;;3.20;;
16612;SDS011;8419;52.358;9.752;2023-03-01T09:56:46;8.83;;;3.63;;
16612;SDS011;8419;52.358;9.752;2023-03-01T09:59:43;10.03;;;4.00;;
16612;SDS011;8419;52.358;9.752;2023-03-01T10:02:52;6.53;;;3.60;;
16612;SDS011;8419;52.358;9.752;2023-03-01T10:05:50;7.43;;;4.33;;
16612;SDS011;8419;52.358;9.752;2023-03-01T10:08:42;7.50;;;3.83;;
16612;SDS011;8419;52.358;9.752;2023-03-01T10:11:35;7.07;;;4.57;;
16612;SDS011;8419;52.358;9.752;2023-03-01T10:14:32;11.23;;;4.37;;
16612;SDS011;8419;52.358;9.752;2023-03-01T10:17:25;11.23;;;4.87;;
16612;SDS011;8419;52.358;9.752;2023-03-01T10:20:17;6.37;;;3.90;;
16612;SDS011;8419;52.358;9.752;2023-03-01T10:23:07;8.33;;;4.00;;
16612;SDS011;8419;52.358;9.752;2023-03-01T10:26:00;9.17;;;4.53;;
16612;SDS011;8419;52.358;9.752;2023-03-01T10:29:01;8.63;;;4.17;;
16612;SDS011;8419;52.358;9.752;2023-03-01T10:31:48;10.00;;;4.20;;
16612;SDS011;8419;52.358;9.752;2023-03-01T10:34:35;4.60;;;3.57;;
16612;SDS011;8419;52.358;9.752;2023-03-01T10:37:21;7.50;;;3.57;;
16612;SDS011;8419;52.358;9.752;2023-03-01T10:40:10;4.87;;;3.30;;
16612;SDS011;8419;52.358;9.752;2023-03-01T10:42:57;5.83;;;3.13;;
16612;SDS011;8419;52.358;9.752;2023-03-01T10:45:45;6.47;;;2.90;;
16612;SDS011;8419;52.358;9.752;2023-03-01T10:48:31;6.63;;;3.07;;
16612;SDS011;8419;52.358;9.752;2023-03-01T10:51:17;5.43;;;3.27;;
16612;SDS011;8419;52.358;9.752;2023-03-01T10:54:04;7.43;;;3.23;;
16612;SDS011;8419;52.358;9.752;2023-03-01T10:57:01;5.80;;;3.00;;
16612;SDS011;8419;52.358;9.752;2023-03-01T10:59:51;4.77;;;3.07;;
16612;SDS011;8419;52.358;9.752;2023-03-01T11:03:11;5.70;;;2.43;;
16612;SDS011;8419;52.358;9.752;2023-03-01T11:06:03;3.20;;;2.33;;
16612;SDS011;8419;52.358;9.752;2023-03-01T11:09:13;4.93;;;2.60;;
16612;SDS011;8419;52.358;9.752;2023-03-01T11:12:00;5.93;;;3.08;;
16612;SDS011;8419;52.358;9.752;2023-03-01T11:14:46;4.73;;;2.57;;
16612;SDS011;8419;52.358;9.752;2023-03-01T11:17:33;3.83;;;2.40;;
16612;SDS011;8419;52.358;9.752;2023-03-01T11:20:26;5.30;;;2.50;;
16612;SDS011;8419;52.358;9.752;2023-03-01T11:23:16;4.93;;;2.27;;
16612;SDS011;8419;52.358;9.752;2023-03-01T11:26:02;2.90;;;2.40;;
16612;SDS011;8419;52.358;9.752;2023-03-01T11:28:53;5.53;;;2.50;;
16612;SDS011;8419;52.358;9.752;2023-03-01T11:31:43;4.70;;;2.80;;
16612;SDS011;8419;52.358;9.752;2023-03-01T11:34:38;9.13;;;2.50;;
16612;SDS011;8419;52.358;9.752;2023-03-01T11:37:30;6.22;;;2.42;;
16612;SDS011;8419;52.358;9.752;2023-03-01T11:40:21;6.05;;;2.58;;
16612;SDS011;8419;52.358;9.752;2023-03-01T11:43:11;3.90;;;2.67;;
16612;SDS011;8419;52.358;9.752;2023-03-01T11:46:15;5.53;;;2.97;;
16612;SDS011;8419;52.358;9.752;2023-03-01T11:49:29;4.47;;;2.45;;
16612;SDS011;8419;52.358;9.752;2023-03-01T11:52:27;3.30;;;2.15;;
16612;SDS011;8419;52.358;9.752;2023-03-01T11:55:23;5.95;;;2.70;;
16612;SDS011;8419;52.358;9.752;2023-03-01T11:58:29;3.70;;;2.35;;
16612;SDS011;8419;52.358;9.752;2023-03-01T12:01:35;3.65;;;2.65;;
16612;SDS011;8419;52.358;9.752;2023-03-01T12:04:32;3.53;;;2.42;;
16612;SDS011;8419;52.358;9.752;2023-03-01T12:07:40;3.62;;;2.33;;
16612;SDS011;8419;52.358;9.752;2023-03-01T12:10:35;3.60;;;2.30;;
16612;SDS011;8419;52.358;9.752;2023-03-01T12:13:35;2.97;;;2.03;;
16612;SDS011;8419;52.358;9.752;2023-03-01T12:16:34;6.05;;;3.80;;
16612;SDS011;8419;52.358;9.752;2023-03-01T12:19:42;5.10;;;2.60;;
16612;SDS011;8419;52.358;9.752;2023-03-01T12:22:40;2.50;;;1.85;;
16612;SDS011;8419;52.358;9.752;2023-03-01T12:25:35;4.12;;;2.60;;
16612;SDS011;8419;52.358;9.752;2023-03-01T12:28:37;3.10;;;2.15;;
16612;SDS011;8419;52.358;9.752;2023-03-01T12:31:39;3.08;;;2.17;;
16612;SDS011;8419;52.358;9.752;2023-03-01T12:38:10;4.47;;;2.65;;
16612;SDS011;8419;52.358;9.752;2023-03-01T12:41:17;4.53;;;3.03;;
16612;SDS011;8419;52.358;9.752;2023-03-01T12:44:29;5.82;;;3.08;;
16612;SDS011;8419;52.358;9.752;2023-03-01T12:47:30;4.03;;;2.40;;
16612;SDS011;8419;52.358;9.752;2023-03-01T12:50:37;4.47;;;2.78;;
16612;SDS011;8419;52.358;9.752;2023-03-01T12:53:28;3.58;;;2.70;;
16612;SDS011;8419;52.358;9.752;2023-03-01T12:56:15;7.95;;;2.87;;
16612;SDS011;8419;52.358;9.752;2023-03-01T12:59:04;4.95;;;2.60;;
16612;SDS011;8419;52.358;9.752;2023-03-01T13:02:02;3.03;;;2.30;;
16612;SDS011;8419;52.358;9.752;2023-03-01T13:05:01;3.85;;;2.40;;
16612;SDS011;8419;52.358;9.752;2023-03-01T13:08:04;3.10;;;2.50;;
16612;SDS011;8419;52.358;9.752;2023-03-01T13:10:58;2.95;;;2.12;;
16612;SDS011;8419;52.358;9.752;2023-03-01T13:13:45;5.53;;;2.58;;
16612;SDS011;8419;52.358;9.752;2023-03-01T13:16:42;3.00;;;2.47;;
16612;SDS011;8419;52.358;9.752;2023-03-01T13:19:29;4.65;;;3.00;;
16612;SDS011;8419;52.358;9.752;2023-03-01T13:22:26;3.90;;;2.50;;
16612;SDS011;8419;52.358;9.752;2023-03-01T13:25:16;3.90;;;2.17;;
16612;SDS011;8419;52.358;9.752;2023-03-01T13:34:54;4.43;;;2.33;;
16612;SDS011;8419;52.358;9.752;2023-03-01T13:37:41;4.18;;;2.40;;
16612;SDS011;8419;52.358;9.752;2023-03-01T13:43:51;4.65;;;3.08;;
16612;SDS011;8419;52.358;9.752;2023-03-01T13:46:37;6.80;;;3.03;;
16612;SDS011;8419;52.358;9.752;2023-03-01T13:49:25;6.57;;;2.75;;
16612;SDS011;8419;52.358;9.752;2023-03-01T13:52:24;2.97;;;2.40;;
16612;SDS011;8419;52.358;9.752;2023-03-01T13:55:21;4.20;;;2.70;;
16612;SDS011;8419;52.358;9.752;2023-03-01T13:58:15;4.57;;;2.90;;
16612;SDS011;8419;52.358;9.752;2023-03-01T14:01:06;4.25;;;3.70;;
16612;SDS011;8419;52.358;9.752;2023-03-01T14:04:17;4.68;;;2.92;;
16612;SDS011;8419;52.358;9.752;2023-03-01T14:07:11;5.12;;;3.10;;
16612;SDS011;8419;52.358;9.752;2023-03-01T14:10:02;5.90;;;3.05;;
16612;SDS011;8419;52.358;9.752;2023-03-01T14:12:51;4.65;;;2.50;;
16612;SDS011;8419;52.358;9.752;2023-03-01T14:15:46;4.43;;;2.78;;
16612;SDS011;8419;52.358;9.752;2023-03-01T14:18:40;4.10;;;2.62;;
16612;SDS011;8419;52.358;9.752;2023-03-01T14:21:32;4.85;;;2.72;;
16612;SDS011;8419;52.358;9.752;2023-03-01T14:24:18;5.40;;;2.25;;
16612;SDS011;8419;52.358;9.752;2023-03-01T14:27:09;3.50;;;2.40;;
16612;SDS011;8419;52.358;9.752;2023-03-01T14:29:58;4.15;;;2.22;;
16612;SDS011;8419;52.358;9.752;2023-03-01T14:32:47;3.90;;;2.50;;
16612;SDS011;8419;52.358;9.752;2023-03-01T14:35:37;4.20;;;2.30;;
16612;SDS011;8419;52.358;9.752;2023-03-01T14:38:23;4.53;;;2.33;;
16612;SDS011;8419;52.358;9.752;2023-03-01T14:41:14;3.22;;;2.40;;
16612;SDS011;8419;52.358;9.752;2023-03-01T14:44:03;3.60;;;2.10;;
16612;SDS011;8419;52.358;9.752;2023-03-01T14:46:57;4.62;;;1.87;;
16612;SDS011;8419;52.358;9.752;2023-03-01T14:49:42;5.68;;;2.08;;
16612;SDS011;8419;52.358;9.752;2023-03-01T14:52:31;3.25;;;1.95;;
16612;SDS011;8419;52.358;9.752;2023-03-01T14:55:24;3.30;;;2.30;;
16612;SDS011;8419;52.358;9.752;2023-03-01T14:58:17;3.47;;;2.20;;
16612;SDS011;8419;52.358;9.752;2023-03-01T15:01:05;4.07;;;1.95;;
16612;SDS011;8419;52.358;9.752;2023-03-01T15:03:54;4.53;;;2.42;;
16612;SDS011;8419;52.358;9.752;2023-03-01T15:06:40;3.12;;;1.80;;
16612;SDS011;8419;52.358;9.752;2023-03-01T15:09:26;4.30;;;2.47;;
16612;SDS011;8419;52.358;9.752;2023-03-01T15:12:31;2.83;;;1.73;;
16612;SDS011;8419;52.358;9.752;2023-03-01T15:15:34;4.10;;;1.85;;
16612;SDS011;8419;52.358;9.752;2023-03-01T15:18:25;2.60;;;1.77;;
16612;SDS011;8419;52.358;9.752;2023-03-01T15:21:16;3.10;;;2.10;;
16612;SDS011;8419;52.358;9.752;2023-03-01T15:24:07;4.75;;;2.72;;
16612;SDS011;8419;52.358;9.752;2023-03-01T15:27:03;2.62;;;1.98;;
16612;SDS011;8419;52.358;9.752;2023-03-01T15:29:52;2.17;;;1.75;;
16612;SDS011;8419;52.358;9.752;2023-03-01T15:32:40;3.65;;;2.30;;
16612;SDS011;8419;52.358;9.752;2023-03-01T15:35:33;4.07;;;2.50;;
16612;SDS011;8419;52.358;9.752;2023-03-01T15:38:30;2.62;;;2.03;;
16612;SDS011;8419;52.358;9.752;2023-03-01T15:41:38;3.85;;;2.45;;
16612;SDS011;8419;52.358;9.752;2023-03-01T15:44:33;2.08;;;1.70;;
16612;SDS011;8419;52.358;9.752;2023-03-01T15:47:24;4.43;;;2.17;;
16612;SDS011;8419;52.358;9.752;2023-03-01T15:50:15;2.92;;;2.15;;
16612;SDS011;8419;52.358;9.752;2023-03-01T15:53:05;4.47;;;2.03;;
16612;SDS011;8419;52.358;9.752;2023-03-01T15:55:54;2.22;;;1.83;;
16612;SDS011;8419;52.358;9.752;2023-03-01T15:58:40;2.15;;;1.85;;
16612;SDS011;8419;52.358;9.752;2023-03-01T16:01:25;5.57;;;1.98;;
16612;SDS011;8419;52.358;9.752;2023-03-01T16:04:11;6.70;;;2.10;;
16612;SDS011;8419;52.358;9.752;2023-03-01T16:07:04;2.33;;;2.03;;
16612;SDS011;8419;52.358;9.752;2023-03-01T16:09:50;3.75;;;2.45;;
16612;SDS011;8419;52.358;9.752;2023-03-01T16:12:35;3.17;;;2.20;;
16612;SDS011;8419;52.358;9.752;2023-03-01T16:15:21;3.75;;;2.10;;
16612;SDS011;8419;52.358;9.752;2023-03-01T16:18:08;3.15;;;1.95;;
16612;SDS011;8419;52.358;9.752;2023-03-01T16:20:55;3.70;;;2.28;;
16612;SDS011;8419;52.358;9.752;2023-03-01T16:23:40;2.55;;;2.00;;
16612;SDS011;8419;52.358;9.752;2023-03-01T16:26:27;2.83;;;2.05;;
16612;SDS011;8419;52.358;9.752;2023-03-01T16:29:12;5.12;;;2.65;;
16612;SDS011;8419;52.358;9.752;2023-03-01T16:32:00;3.67;;;2.53;;
16612;SDS011;8419;52.358;9.752;2023-03-01T16:34:47;2.80;;;2.15;;
16612;SDS011;8419;52.358;9.752;2023-03-01T16:37:33;3.87;;;2.10;;
16612;SDS011;8419;52.358;9.752;2023-03-01T16:40:20;3.62;;;1.85;;
16612;SDS011;8419;52.358;9.752;2023-03-01T16:43:08;4.35;;;1.98;;
16612;SDS011;8419;52.358;9.752;2023-03-01T16:45:55;4.47;;;2.15;;
16612;SDS011;8419;52.358;9.752;2023-03-01T16:48:40;2.58;;;1.80;;
16612;SDS011;8419;52.358;9.752;2023-03-01T16:51:25;3.55;;;1.73;;
16612;SDS011;8419;52.358;9.752;2023-03-01T16:54:11;2.20;;;1.80;;
16612;SDS011;8419;52.358;9.752;2023-03-01T16:56:56;3.10;;;2.08;;
16612;SDS011;8419;52.358;9.752;2023-03-01T16:59:42;3.37;;;2.47;;
16612;SDS011;8419;52.358;9.752;2023-03-01T17:02:27;5.28;;;2.12;;
16612;SDS011;8419;52.358;9.752;2023-03-01T17:05:12;3.85;;;2.25;;
16612;SDS011;8419;52.358;9.752;2023-03-01T17:07:57;5.68;;;2.62;;
16612;SDS011;8419;52.358;9.752;2023-03-01T17:10:43;5.25;;;2.37;;
16612;SDS011;8419;52.358;9.752;2023-03-01T17:13:29;4.18;;;2.08;;
16612;SDS011;8419;52.358;9.752;2023-03-01T17:16:16;3.42;;;2.22;;
16612;SDS011;8419;52.358;9.752;2023-03-01T17:19:04;3.78;;;2.45;;
16612;SDS011;8419;52.358;9.752;2023-03-01T17:21:49;3.83;;;2.28;;
16612;SDS011;8419;52.358;9.752;2023-03-01T17:24:35;5.47;;;1.98;;